Flagstaff, Arizona
Current Conditions -  °F | °C
As of 2:57 PM on Monday 26 Jan 2015 (Local Time) from KFLG Reporting Station
Clear Clear  
Wind Chill: 12°   Ceiling: Unl
Heat Index: 12°   Visibility: 10mi
Dew Point: -4°   Wind: 7mph
Humidity: 33%   Direction: 90°E
Pressure: 30.27"   Gusts: NA
Location:  35.2°N, 111.65°W
Report Text: KFLG 262157Z 09006KT 10SM CLR 12/M04 A3027 RMK AO2 SLP210 T01221039
Loading
Personal Weather Stations






























Interactive Weather Map New forecast layout! Learn more

10-Day Weather Forecast

Advertisements
Track Severe Weather on mobile